Time;durP1;ratioP1;P1;durP2;ratioP2;P2;SDS_P1;SDS_P2;PMS_P1;PMS_P2;Temp;Humidity;BMP_temperature;BMP_pressure;BME280_temperature;BME280_humidity;BME280_pressure;Samples;Min_cycle;Max_cycle;Signal;HPM_P1;HPM_P2
2022/09/23 04:00:48;;;;;;;6.00;4.10;;;;;;;6.17;100.00;100811.91;6578699;26;214053;-89
2022/09/23 04:03:52;;;;;;;7.47;4.47;;;;;;;6.13;100.00;100814.03;6588605;27;33957;-89
2022/09/23 04:06:55;;;;;;;8.10;4.90;;;;;;;6.13;100.00;100815.88;6583759;27;34077;-89
2022/09/23 04:09:58;;;;;;;7.40;4.37;;;;;;;6.13;100.00;100816.72;6582385;27;34003;-89
2022/09/23 04:13:00;;;;;;;5.97;4.00;;;;;;;6.12;100.00;100811.50;6582468;27;33926;-89
2022/09/23 04:16:03;;;;;;;9.65;4.37;;;;;;;6.10;100.00;100818.81;6580722;27;34297;-88
2022/09/23 04:19:08;;;;;;;7.12;4.62;;;;;;;6.11;100.00;100818.69;6580647;27;34368;-88
2022/09/23 04:22:13;;;;;;;7.68;4.40;;;;;;;6.12;100.00;100811.50;6581473;27;33820;-88
2022/09/23 04:25:16;;;;;;;8.32;4.57;;;;;;;6.10;100.00;100813.47;6583709;27;34614;-88
2022/09/23 04:28:19;;;;;;;8.18;4.55;;;;;;;6.13;100.00;100821.22;6568103;27;32718;-88
2022/09/23 04:31:22;;;;;;;7.75;4.60;;;;;;;6.12;100.00;100814.19;6580364;27;33749;-89
2022/09/23 04:34:25;;;;;;;7.53;4.43;;;;;;;6.10;100.00;100821.50;6599316;26;34993;-88
2022/09/23 04:37:28;;;;;;;7.25;4.43;;;;;;;6.05;100.00;100818.38;6600359;26;35380;-89
2022/09/23 04:40:31;;;;;;;9.75;4.62;;;;;;;6.04;100.00;100825.56;6593078;26;33650;-88
2022/09/23 04:43:34;;;;;;;8.75;4.80;;;;;;;6.04;100.00;100828.22;6580444;27;34757;-90
2022/09/23 04:46:38;;;;;;;10.15;5.12;;;;;;;6.01;100.00;100825.00;6580447;27;33728;-90
2022/09/23 04:49:41;;;;;;;8.75;4.53;;;;;;;6.03;100.00;100825.72;6579815;27;33740;-91
2022/09/23 04:52:43;;;;;;;9.10;4.57;;;;;;;6.02;100.00;100824.84;6579704;27;34701;-90
2022/09/23 04:55:46;;;;;;;7.10;4.50;;;;;;;5.99;100.00;100825.12;6580041;27;34347;-90
2022/09/23 04:58:49;;;;;;;7.53;4.45;;;;;;;6.00;100.00;100829.50;6599286;26;34419;-90
2022/09/23 05:01:54;;;;;;;8.18;4.93;;;;;;;6.04;100.00;100828.22;6595566;27;33810;-90
2022/09/23 05:04:57;;;;;;;6.82;4.93;;;;;;;6.16;100.00;100833.47;6579949;27;33950;-90
2022/09/23 05:07:59;;;;;;;6.25;4.82;;;;;;;6.24;100.00;100838.97;6561192;27;32952;-90
2022/09/23 05:11:03;;;;;;;7.30;4.75;;;;;;;6.27;100.00;100838.69;6584461;27;33617;-90
2022/09/23 05:14:06;;;;;;;12.68;5.45;;;;;;;6.39;100.00;100842.09;6580444;27;33912;-90
2022/09/23 05:17:09;;;;;;;9.27;5.32;;;;;;;6.50;100.00;100840.13;6580072;26;33870;-90
2022/09/23 05:20:12;;;;;;;6.15;4.57;;;;;;;6.63;100.00;100847.03;6579914;27;35347;-91
2022/09/23 05:23:15;;;;;;;9.20;4.68;;;;;;;6.75;100.00;100848.56;6579165;27;33886;-90
2022/09/23 05:26:17;;;;;;;9.05;5.37;;;;;;;6.80;100.00;100848.97;6579996;27;33847;-90
2022/09/23 05:29:20;;;;;;;9.00;4.12;;;;;;;6.88;100.00;100853.63;6578456;27;33873;-90
2022/09/23 05:32:25;;;;;;;8.55;5.32;;;;;;;6.94;100.00;100853.91;6579646;27;33928;-90
2022/09/23 05:35:28;;;;;;;7.90;5.05;;;;;;;7.08;100.00;100859.78;6580484;27;33828;-90
2022/09/23 05:38:34;;;;;;;8.48;5.05;;;;;;;7.14;100.00;100857.41;6580731;27;34036;-91
2022/09/23 05:41:39;;;;;;;8.00;5.12;;;;;;;7.28;100.00;100858.75;6579422;27;34147;-91
2022/09/23 05:44:41;;;;;;;6.53;4.90;;;;;;;7.49;100.00;100856.75;6580492;27;34703;-90
2022/09/23 05:47:44;;;;;;;8.85;4.85;;;;;;;7.54;100.00;100861.66;6579567;27;33637;-91
2022/09/23 05:50:50;;;;;;;7.97;5.05;;;;;;;7.64;100.00;100859.78;6580064;27;34565;-90
2022/09/23 05:53:57;;;;;;;10.35;5.20;;;;;;;7.74;100.00;100854.37;6580210;27;34764;-90
2022/09/23 05:56:59;;;;;;;8.75;5.15;;;;;;;7.88;100.00;100859.25;6560292;27;32658;-90
2022/09/23 06:00:07;;;;;;;10.65;5.55;;;;;;;8.04;100.00;100861.28;6580872;26;35355;-93
2022/09/23 06:03:17;;;;;;;6.97;4.68;;;;;;;8.24;100.00;100858.50;6581291;27;34374;-91
2022/09/23 06:06:35;;;;;;;8.77;5.35;;;;;;;8.39;100.00;100863.25;6581078;27;33942;-91
2022/09/23 06:09:37;;;;;;;7.72;5.05;;;;;;;8.54;99.82;100860.00;6580903;27;33745;-90
2022/09/23 06:12:41;;;;;;;7.55;5.00;;;;;;;8.54;97.41;100855.50;6581337;27;34853;-90
2022/09/23 06:15:44;;;;;;;9.45;5.37;;;;;;;8.58;97.16;100856.88;6583399;27;35292;-91
2022/09/23 06:18:47;;;;;;;8.20;5.07;;;;;;;8.74;96.87;100863.41;6581937;27;34088;-91
2022/09/23 06:21:49;;;;;;;7.32;4.87;;;;;;;8.94;96.06;100864.91;6585221;27;34054;-91
2022/09/23 06:24:52;;;;;;;6.90;5.15;;;;;;;9.04;96.30;100864.84;6582300;26;33977;-91
2022/09/23 06:27:55;;;;;;;8.48;4.72;;;;;;;9.21;94.16;100865.78;6572626;27;33729;-91
2022/09/23 06:31:00;;;;;;;11.93;4.95;;;;;;;9.33;92.30;100872.62;6579655;27;34609;-91
2022/09/23 06:34:03;;;;;;;8.50;5.22;;;;;;;9.48;91.95;100862.12;6580083;27;33883;-91
2022/09/23 06:37:14;;;;;;;7.68;5.00;;;;;;;9.67;89.95;100859.19;6581570;26;33988;-91
2022/09/23 06:40:22;;;;;;;8.73;5.47;;;;;;;9.60;88.15;100866.22;6580194;27;32803;-91
2022/09/23 06:43:25;;;;;;;7.72;5.15;;;;;;;9.66;88.68;100867.44;6581141;27;34011;-91
2022/09/23 06:46:30;;;;;;;8.48;5.30;;;;;;;9.75;87.41;100872.69;6581735;27;34151;-91
2022/09/23 06:49:33;;;;;;;8.23;5.10;;;;;;;9.97;87.17;100873.09;6581480;27;33623;-91
2022/09/23 06:52:35;;;;;;;8.98;5.18;;;;;;;10.06;86.69;100874.84;6580843;27;33540;-91
2022/09/23 06:55:40;;;;;;;6.00;4.68;;;;;;;10.33;88.27;100878.34;6581510;26;33865;-91
2022/09/23 06:58:43;;;;;;;7.95;4.72;;;;;;;10.34;86.67;100872.78;6578956;27;32938;-91
2022/09/23 07:01:49;;;;;;;8.10;4.97;;;;;;;10.55;86.69;100872.31;6625572;26;33675;-89
2022/09/23 07:04:55;;;;;;;11.95;4.87;;;;;;;10.75;86.48;100875.53;6625883;26;32804;-89
2022/09/23 07:07:58;;;;;;;10.52;5.55;;;;;;;10.96;86.00;100877.75;6663265;26;33670;-91
2022/09/23 07:11:03;;;;;;;8.32;5.47;;;;;;;11.13;84.94;100874.03;6659672;26;34653;-90
2022/09/23 07:14:06;;;;;;;8.55;5.25;;;;;;;11.33;84.69;100876.38;6663150;26;34431;-90
2022/09/23 07:17:09;;;;;;;8.25;4.97;;;;;;;11.48;82.47;100876.53;6663485;26;33881;-90
2022/09/23 07:20:12;;;;;;;8.18;5.00;;;;;;;11.73;82.25;100877.31;6657615;26;34740;-91
2022/09/23 07:23:16;;;;;;;6.90;4.72;;;;;;;11.86;81.12;100876.78;6664344;26;35296;-91
2022/09/23 07:26:20;;;;;;;7.85;5.07;;;;;;;12.03;79.13;100873.03;6664071;26;35197;-91
2022/09/23 07:29:22;;;;;;;7.72;4.68;;;;;;;12.07;78.17;100878.91;6663995;26;33986;-90
2022/09/23 07:32:26;;;;;;;4.97;4.07;;;;;;;12.17;77.60;100882.25;6665530;26;33970;-91
2022/09/23 07:35:31;;;;;;;6.95;4.57;;;;;;;12.42;76.75;100881.09;6663881;26;33700;-91
2022/09/23 07:38:35;;;;;;;8.23;4.78;;;;;;;12.41;75.94;100887.50;6663402;26;34959;-91
2022/09/23 07:41:43;;;;;;;6.95;3.92;;;;;;;12.56;75.56;100878.66;6664420;26;35019;-91
2022/09/23 07:44:46;;;;;;;4.78;4.18;;;;;;;12.70;74.20;100880.59;6653662;26;33329;-91
2022/09/23 07:47:49;;;;;;;4.10;3.47;;;;;;;12.86;73.19;100883.16;6665667;26;35129;-93
2022/09/23 07:50:52;;;;;;;5.03;3.47;;;;;;;13.11;74.23;100875.69;6663273;26;33492;-90
2022/09/23 07:53:55;;;;;;;7.82;4.35;;;;;;;13.34;72.62;100881.09;6663687;26;33980;-91
2022/09/23 07:56:58;;;;;;;7.43;4.25;;;;;;;13.28;72.42;100879.12;6663620;26;34088;-91
2022/09/23 08:00:02;;;;;;;10.25;4.82;;;;;;;13.36;70.44;100879.03;6663350;26;34616;-91
2022/09/23 08:03:13;;;;;;;6.03;3.85;;;;;;;13.35;70.40;100879.25;6643502;26;32417;-91
2022/09/23 08:06:16;;;;;;;4.70;3.70;;;;;;;13.65;68.70;100877.41;6665120;26;34346;-90
2022/09/23 08:09:21;;;;;;;5.55;3.92;;;;;;;13.60;68.69;100877.09;6663897;26;35339;-90
2022/09/23 08:12:24;;;;;;;7.05;3.65;;;;;;;13.72;66.98;100872.09;6666273;26;33915;-91
2022/09/23 08:15:27;;;;;;;5.15;3.62;;;;;;;13.77;68.06;100867.78;6645229;26;32437;-90
2022/09/23 08:18:30;;;;;;;6.03;3.97;;;;;;;13.80;67.11;100875.53;6664258;26;34730;-91
2022/09/23 08:21:32;;;;;;;5.95;3.72;;;;;;;14.14;66.12;100868.69;6663977;26;34045;-91
2022/09/23 08:24:35;;;;;;;4.75;3.83;;;;;;;14.18;65.97;100864.56;6644109;26;34104;-91
2022/09/23 08:27:38;;;;;;;4.22;3.50;;;;;;;14.34;65.48;100860.81;6663436;26;33962;-90
2022/09/23 08:30:43;;;;;;;5.68;3.45;;;;;;;14.65;63.50;100859.72;6664950;26;33991;-90
2022/09/23 08:33:46;;;;;;;4.90;3.75;;;;;;;14.69;64.33;100858.31;6662706;26;34723;-90
2022/09/23 08:36:51;;;;;;;4.62;3.25;;;;;;;14.73;63.95;100860.44;6662904;26;33680;-89
2022/09/23 08:39:53;;;;;;;9.75;3.90;;;;;;;14.80;62.58;100862.38;6655829;26;34425;-91
2022/09/23 08:42:56;;;;;;;3.60;3.30;;;;;;;14.79;63.78;100860.69;6641131;26;32180;-90
2022/09/23 08:46:04;;;;;;;4.07;3.33;;;;;;;14.95;63.35;100855.84;6661923;26;33896;-90
2022/09/23 08:49:11;;;;;;;5.45;4.07;;;;;;;14.97;61.76;100850.22;6662249;26;34534;-91
2022/09/23 08:52:26;;;;;;;4.18;3.72;;;;;;;15.11;61.66;100856.59;6662751;26;34738;-90
2022/09/23 08:55:52;;;;;;;4.95;3.62;;;;;;;15.41;62.05;100858.13;6661329;26;34029;-91
2022/09/23 08:59:08;;;;;;;5.43;3.20;;;;;;;15.09;60.67;100848.69;6661805;26;33787;-90
2022/09/23 09:02:19;;;;;;;6.32;3.58;;;;;;;15.42;60.40;100851.63;6667179;26;34281;-90
2022/09/23 09:05:26;;;;;;;6.90;3.50;;;;;;;15.62;59.44;100850.94;6649693;26;33663;-90
2022/09/23 09:08:35;;;;;;;4.37;3.67;;;;;;;15.57;58.71;100856.12;6662603;26;33973;-90
2022/09/23 09:11:45;;;;;;;3.50;3.15;;;;;;;15.26;60.48;100853.81;6662030;26;34669;-90
2022/09/23 09:15:05;;;;;;;5.57;3.35;;;;;;;15.60;60.17;100844.88;6642470;26;33575;-91
2022/09/23 09:18:18;;;;;;;4.37;3.70;;;;;;;16.03;58.99;100850.97;6642502;26;32643;-91
2022/09/23 09:21:32;;;;;;;4.18;3.72;;;;;;;15.99;58.54;100846.97;6663179;26;34359;-90
2022/09/23 09:24:34;;;;;;;4.65;3.80;;;;;;;15.82;58.07;100843.78;6662592;26;34366;-90
2022/09/23 09:27:40;;;;;;;5.57;3.95;;;;;;;15.75;57.71;100844.78;6663193;26;34734;-90
2022/09/23 09:30:45;;;;;;;4.90;3.65;;;;;;;15.77;58.19;100838.13;6662475;26;34539;-91
2022/09/23 09:34:12;;;;;;;3.85;3.45;;;;;;;16.29;59.33;100833.09;6642172;26;34468;-90
2022/09/23 09:37:36;;;;;;;7.82;3.08;;;;;;;16.58;55.57;100829.19;6662119;26;34735;-90
2022/09/23 09:40:45;;;;;;;3.47;2.80;;;;;;;16.79;58.69;100833.66;6662447;26;34447;-90
2022/09/23 09:43:52;;;;;;;3.47;2.97;;;;;;;17.03;57.62;100826.78;6661427;26;35389;-90
2022/09/23 09:47:19;;;;;;;4.75;3.47;;;;;;;17.37;53.74;100825.69;6664497;26;33758;-90
2022/09/23 09:50:41;;;;;;;3.25;2.92;;;;;;;17.56;53.51;100828.59;6669458;26;34860;-91
2022/09/23 09:53:44;;;;;;;3.83;3.28;;;;;;;17.45;51.71;100816.47;6642531;26;34141;-90
2022/09/23 09:56:47;;;;;;;3.87;3.20;;;;;;;17.55;52.05;100822.31;6662363;26;34156;-91
2022/09/23 09:59:56;;;;;;;4.90;2.97;;;;;;;17.37;52.64;100813.97;6663798;26;34412;-90
2022/09/23 10:03:19;;;;;;;5.05;3.30;;;;;;;17.36;53.92;100815.84;6667243;26;34328;-91
2022/09/23 10:06:32;;;;;;;5.12;3.65;;;;;;;17.13;53.45;100812.75;6645120;26;32787;-90
2022/09/23 10:09:36;;;;;;;6.03;3.37;;;;;;;16.58;54.74;100803.91;6664149;26;34492;-90
2022/09/23 10:12:45;;;;;;;5.25;3.60;;;;;;;16.62;55.80;100800.56;6667100;26;34030;-90
2022/09/23 10:15:48;;;;;;;4.87;3.47;;;;;;;16.75;55.93;100799.72;6644078;26;34262;-91
2022/09/23 10:18:55;;;;;;;4.55;3.33;;;;;;;17.19;53.77;100804.56;6663386;26;33540;-90
2022/09/23 10:22:04;;;;;;;3.55;3.22;;;;;;;17.66;51.84;100799.03;6662652;26;34226;-91
2022/09/23 10:25:20;;;;;;;3.87;3.20;;;;;;;18.08;50.97;100799.53;6663130;26;33664;-90
2022/09/23 10:28:47;;;;;;;3.83;3.33;;;;;;;17.85;50.99;100798.16;6669285;26;34827;-90
2022/09/23 10:32:26;;;;;;;4.78;3.33;;;;;;;17.86;50.27;100797.09;6644798;26;33418;-90
2022/09/23 10:35:32;;;;;;;8.30;3.72;;;;;;;17.76;52.35;100796.69;6661964;26;33719;-90
2022/09/23 10:38:35;;;;;;;3.20;2.90;;;;;;;18.17;49.92;100795.50;6642050;26;33157;-91
2022/09/23 10:49:07;;;;;;;3.95;3.30;;;;;;;18.18;50.02;100786.28;6662358;26;34154;-91
2022/09/23 10:52:48;;;;;;;6.28;3.17;;;;;;;19.01;49.93;100772.50;6642243;26;33449;-91
2022/09/23 10:56:15;;;;;;;4.82;3.50;;;;;;;19.99;47.50;100778.19;6663226;26;33887;-90
2022/09/23 10:59:49;;;;;;;3.87;3.22;;;;;;;20.48;45.78;100770.75;6642196;26;32251;-91
2022/09/23 11:03:26;;;;;;;4.55;3.00;;;;;;;21.29;42.32;100775.53;6663945;26;34045;-91
2022/09/23 11:06:44;;;;;;;4.15;3.17;;;;;;;22.12;41.62;100761.66;6644039;26;32358;-88
2022/09/23 11:10:06;;;;;;;3.95;3.12;;;;;;;22.25;37.40;100758.63;6659539;26;34196;-89
2022/09/23 11:14:07;;;;;;;3.85;3.05;;;;;;;21.88;39.24;100755.41;6662528;26;34264;-89
2022/09/23 11:17:54;;;;;;;2.90;2.65;;;;;;;21.16;40.29;100763.97;6632219;26;32333;-90
2022/09/23 11:21:19;;;;;;;3.40;2.72;;;;;;;21.40;38.92;100762.91;6663578;26;34907;-89
2022/09/23 11:24:35;;;;;;;3.90;3.10;;;;;;;21.03;39.28;100752.19;6642334;26;33609;-90
2022/09/23 11:28:04;;;;;;;4.10;3.17;;;;;;;20.54;41.39;100746.06;6664191;26;34741;-90
2022/09/23 11:31:32;;;;;;;4.28;2.60;;;;;;;19.79;41.66;100740.16;6679100;26;34435;-89
2022/09/23 11:35:20;;;;;;;3.25;2.83;;;;;;;20.05;41.33;100734.34;6663907;26;34032;-89
2022/09/23 11:38:34;;;;;;;5.25;2.75;;;;;;;22.10;39.28;100725.41;6629169;26;34043;-90
2022/09/23 11:41:38;;;;;;;3.20;2.72;;;;;;;23.99;36.12;100722.78;6642745;26;33415;-90
2022/09/23 11:44:48;;;;;;;2.70;2.45;;;;;;;26.08;32.15;100723.38;6672574;26;34203;-90
2022/09/23 11:47:55;;;;;;;3.97;2.85;;;;;;;26.10;31.43;100710.16;6678792;26;34391;-90
2022/09/23 11:51:04;;;;;;;3.35;2.55;;;;;;;25.12;32.04;100710.81;6664948;26;33771;-90
2022/09/23 11:54:20;;;;;;;2.70;2.50;;;;;;;28.15;28.52;100702.25;6663955;26;34415;-90
2022/09/23 11:57:37;;;;;;;3.75;1.83;;;;;;;28.51;25.75;100703.97;6644104;26;32830;-91
2022/09/23 12:00:53;;;;;;;;;;;;;;;29.98;24.12;100695.94;6664021;26;34164;-91
2022/09/23 12:04:09;;;;;;;1.98;1.77;;;;;;;31.19;21.77;100690.59;6664259;26;34322;-91
2022/09/23 12:07:28;;;;;;;2.28;1.77;;;;;;;30.83;20.89;100696.84;6648768;26;33852;-91
2022/09/23 12:11:04;;;;;;;3.42;2.00;;;;;;;29.01;22.96;100696.28;6650303;26;32872;-90
2022/09/23 12:14:32;;;;;;;2.85;1.83;;;;;;;27.51;24.85;100690.12;6662506;26;34045;-91
2022/09/23 12:17:35;;;;;;;;;;;;;;;28.57;23.91;100692.53;6643283;26;33843;-91
2022/09/23 12:21:12;;;;;;;1.42;1.33;;;;;;;30.17;20.44;100684.00;6642758;26;35480;-91
2022/09/23 12:25:05;;;;;;;2.28;2.05;;;;;;;28.58;22.44;100691.44;6662578;26;33546;-90
2022/09/23 12:28:17;;;;;;;2.80;2.25;;;;;;;24.55;28.54;100678.50;6663377;26;34297;-91
2022/09/23 12:31:29;;;;;;;2.90;2.42;;;;;;;22.69;33.26;100683.91;6643034;26;33994;-91
2022/09/23 12:34:47;;;;;;;2.53;2.15;;;;;;;22.25;34.08;100687.31;6662689;26;35067;-94
2022/09/23 12:37:52;;;;;;;2.25;2.00;;;;;;;21.47;32.47;100675.97;6662282;26;34688;-91
2022/09/23 12:40:55;;;;;;;2.47;2.12;;;;;;;20.82;36.18;100682.44;6662300;26;34153;-91
2022/09/23 12:44:14;;;;;;;1.65;1.50;;;;;;;20.52;33.20;100671.59;6662723;26;33825;-91
2022/09/23 12:47:19;;;;;;;1.70;1.60;;;;;;;20.58;32.67;100678.03;6662176;26;33966;-90
2022/09/23 12:50:53;;;;;;;2.17;1.98;;;;;;;20.09;33.32;100667.19;6665281;26;34286;-90
2022/09/23 12:54:03;;;;;;;3.03;2.00;;;;;;;21.10;32.98;100671.84;6641953;26;32855;-90
2022/09/23 12:57:33;;;;;;;1.98;1.77;;;;;;;22.13;31.87;100659.91;6642294;26;33295;-90
2022/09/23 13:00:35;;;;;;;1.70;1.60;;;;;;;25.08;27.16;100660.94;6662544;26;35336;-90
2022/09/23 13:07:29;;;;;;;1.77;1.67;;;;;;;32.23;19.74;100638.72;6642882;26;32440;-90
2022/09/23 13:10:54;;;;;;;2.45;1.50;;;;;;;32.08;18.83;100636.31;6663618;26;34274;-93
2022/09/23 13:14:02;;;;;;;3.08;1.52;;;;;;;32.59;17.87;100631.47;6669900;26;34396;-90
2022/09/23 13:17:05;;;;;;;;;;;;;;;32.50;17.64;100636.97;6665201;26;34141;-90
2022/09/23 13:20:19;;;;;;;2.35;1.60;;;;;;;33.00;16.61;100633.97;6663547;26;34342;-91
2022/09/23 13:23:27;;;;;;;1.87;1.65;;;;;;;29.47;20.70;100631.97;6662776;26;34451;-90
2022/09/23 13:26:31;;;;;;;3.60;2.05;;;;;;;27.19;24.30;100634.44;6662813;26;34496;-90
2022/09/23 13:29:58;;;;;;;2.97;2.10;;;;;;;23.89;27.33;100637.41;6661781;26;34765;-90
2022/09/23 13:33:15;;;;;;;4.72;2.03;;;;;;;22.22;30.61;100640.34;6661674;26;34523;-90
2022/09/23 13:36:19;;;;;;;2.30;1.92;;;;;;;21.61;33.20;100627.16;6661325;26;34013;-89
2022/09/23 13:39:24;;;;;;;5.07;2.22;;;;;;;20.91;34.06;100635.53;6641209;26;33858;-89
2022/09/23 13:42:29;;;;;;;2.28;2.08;;;;;;;20.07;35.06;100635.72;6660778;26;33950;-89
2022/09/23 13:45:36;;;;;;;3.03;2.17;;;;;;;19.27;36.31;100636.78;6663365;26;33915;-89
2022/09/23 13:48:43;;;;;;;2.13;1.97;;;;;;;18.63;37.11;100633.47;6681846;26;34999;-89
2022/09/23 13:51:46;;;;;;;2.87;2.45;;;;;;;18.34;39.03;100633.13;6682694;26;35427;-90
2022/09/23 13:54:49;;;;;;;2.65;2.42;;;;;;;18.25;39.06;100639.06;6663206;26;32541;-89
2022/09/23 13:58:31;;;;;;;3.83;1.92;;;;;;;21.02;37.65;100621.84;6662352;26;32364;-89
2022/09/23 14:01:34;;;;;;;3.78;2.67;;;;;;;24.98;28.33;100625.06;6569197;27;34430;-90
2022/09/23 14:04:37;;;;;;;2.55;2.25;;;;;;;25.61;26.56;100618.72;6569069;27;34892;-90
2022/09/23 14:07:43;;;;;;;2.53;2.22;;;;;;;24.42;28.30;100619.16;6640466;26;33488;-90
2022/09/23 14:10:46;;;;;;;3.90;2.28;;;;;;;22.76;31.33;100622.28;6644021;26;32544;-89
2022/09/23 14:13:53;;;;;;;3.05;2.58;;;;;;;21.33;34.09;100618.94;6646850;26;32723;-89
2022/09/23 14:16:57;;;;;;;3.80;2.47;;;;;;;19.74;36.69;100617.91;6661267;26;34052;-89
2022/09/23 14:20:00;;;;;;;4.72;2.40;;;;;;;19.15;37.95;100616.78;6662175;26;34713;-89
2022/09/23 14:23:11;;;;;;;4.18;2.12;;;;;;;18.70;39.00;100612.44;6641748;26;32999;-89
2022/09/23 14:26:14;;;;;;;3.25;2.90;;;;;;;18.36;41.27;100619.25;6641553;26;34218;-89
2022/09/23 14:29:24;;;;;;;2.20;2.00;;;;;;;18.03;41.55;100614.09;6662770;26;33959;-90
2022/09/23 14:32:29;;;;;;;4.78;2.17;;;;;;;17.80;43.97;100601.88;6633400;26;32757;-89
2022/09/23 14:35:47;;;;;;;3.50;2.55;;;;;;;17.57;45.60;100610.56;6679201;26;34091;-89
2022/09/23 14:38:49;;;;;;;2.47;2.20;;;;;;;17.54;43.90;100608.28;6676133;26;33848;-89
2022/09/23 14:41:52;;;;;;;3.75;2.50;;;;;;;17.46;43.37;100600.38;6661977;26;34915;-90
2022/09/23 14:44:58;;;;;;;3.70;2.72;;;;;;;17.43;43.39;100611.69;6663510;26;34802;-89
2022/09/23 14:48:17;;;;;;;2.60;2.40;;;;;;;17.20;42.93;100607.63;6642833;26;32682;-90
2022/09/23 14:51:21;;;;;;;6.18;2.72;;;;;;;17.20;43.40;100601.34;6642367;26;32624;-89
2022/09/23 14:54:59;;;;;;;4.12;2.25;;;;;;;17.23;45.55;100592.75;6662028;26;34423;-90
2022/09/23 14:58:09;;;;;;;4.22;2.47;;;;;;;17.17;43.92;100588.16;6658164;26;34364;-90
2022/09/23 15:01:31;;;;;;;2.58;2.37;;;;;;;17.25;44.53;100593.34;6642868;26;32406;-93
2022/09/23 15:04:34;;;;;;;2.58;2.30;;;;;;;17.30;45.42;100590.00;6667393;26;34022;-89
2022/09/23 15:07:37;;;;;;;4.03;2.35;;;;;;;17.30;44.46;100593.56;6682319;26;35519;-90
2022/09/23 15:10:40;;;;;;;3.03;2.65;;;;;;;17.37;44.79;100591.62;6668983;26;35526;-90
2022/09/23 15:13:48;;;;;;;2.53;2.33;;;;;;;17.35;45.98;100588.28;6642834;26;32676;-90
2022/09/23 15:16:52;;;;;;;2.60;2.33;;;;;;;17.33;45.38;100587.66;6662936;26;34626;-90
2022/09/23 15:20:07;;;;;;;2.65;2.30;;;;;;;17.32;45.53;100586.00;6642626;26;32417;-90
2022/09/23 15:23:31;;;;;;;3.65;2.30;;;;;;;17.25;45.84;100590.63;6642649;26;32718;-89
2022/09/23 15:26:37;;;;;;;4.15;2.30;;;;;;;17.17;45.12;100583.56;6662310;26;33916;-89
2022/09/23 15:29:40;;;;;;;2.40;2.20;;;;;;;17.15;44.60;100577.50;6662660;26;34544;-90
2022/09/23 15:32:44;;;;;;;3.25;2.35;;;;;;;17.09;45.09;100580.25;6662472;26;33894;-89
2022/09/23 15:35:48;;;;;;;3.20;2.60;;;;;;;16.98;45.71;100579.87;6643073;26;32305;-89
2022/09/23 15:38:52;;;;;;;2.58;2.33;;;;;;;16.92;46.38;100583.44;6663068;26;34471;-89
2022/09/23 15:41:55;;;;;;;3.53;2.47;;;;;;;16.87;45.34;100579.69;6662248;26;34338;-90
2022/09/23 15:44:59;;;;;;;3.10;2.40;;;;;;;16.80;45.12;100573.47;6662685;26;33954;-90
2022/09/23 15:48:09;;;;;;;3.00;2.20;;;;;;;16.72;45.34;100578.03;6664224;26;34691;-90
2022/09/23 15:51:14;;;;;;;2.62;2.20;;;;;;;16.70;46.26;100576.56;6663283;26;33552;-89
2022/09/23 15:54:18;;;;;;;2.80;2.28;;;;;;;16.62;46.08;100571.41;6663492;26;34140;-89
2022/09/23 15:57:21;;;;;;;2.47;2.28;;;;;;;16.43;46.52;100576.63;6663707;26;34794;-89
2022/09/23 16:00:23;;;;;;;3.40;2.33;;;;;;;16.44;48.50;100581.03;6643911;26;33572;-89
